createdAt,value
2022-11-02T00:01:37.010Z,100.00
2022-11-02T00:06:41.895Z,100.00
2022-11-02T00:11:46.668Z,100.00
2022-11-02T00:16:54.607Z,100.00
2022-11-02T00:22:02.014Z,100.00
2022-11-02T00:27:06.979Z,100.00
2022-11-02T00:32:14.296Z,100.00
2022-11-02T00:37:19.080Z,100.00
2022-11-02T00:42:24.061Z,100.00
2022-11-02T00:47:31.757Z,100.00
2022-11-02T00:52:36.832Z,100.00
2022-11-02T00:57:42.735Z,100.00
2022-11-02T01:02:50.229Z,100.00
2022-11-02T01:07:55.841Z,100.00
2022-11-02T01:13:00.722Z,100.00
2022-11-02T01:18:08.612Z,100.00
2022-11-02T01:23:13.520Z,100.00
2022-11-02T01:28:19.034Z,100.00
2022-11-02T01:33:26.474Z,100.00
2022-11-02T01:38:33.933Z,100.00
2022-11-02T01:43:39.776Z,100.00
2022-11-02T01:48:50.630Z,100.00
2022-11-02T01:53:57.848Z,100.00
2022-11-02T01:59:08.360Z,100.00
2022-11-02T02:04:16.167Z,100.00
2022-11-02T02:09:22.362Z,100.00
2022-11-02T02:14:27.639Z,100.00
2022-11-02T02:19:44.337Z,100.00
2022-11-02T02:25:00.254Z,100.00
2022-11-02T02:30:10.697Z,100.00
2022-11-02T02:35:27.441Z,100.00
2022-11-02T02:40:38.356Z,100.00
2022-11-02T02:45:49.713Z,100.00
2022-11-02T02:50:59.852Z,100.00
2022-11-02T02:56:07.064Z,100.00
2022-11-02T03:01:19.778Z,100.00
2022-11-02T03:06:29.102Z,100.00
2022-11-02T03:11:36.858Z,100.00
2022-11-02T03:17:05.002Z,100.00
2022-11-02T03:22:20.999Z,100.00
2022-11-02T03:27:37.485Z,100.00
2022-11-02T03:32:56.461Z,100.00
2022-11-02T03:38:05.247Z,100.00
2022-11-02T03:43:11.272Z,100.00
2022-11-02T03:48:22.084Z,100.00
2022-11-02T03:53:37.211Z,100.00
2022-11-02T03:58:42.139Z,100.00
2022-11-02T04:03:52.430Z,100.00
2022-11-02T04:08:57.716Z,100.00
2022-11-02T04:14:15.505Z,100.00
2022-11-02T04:19:30.883Z,100.00
2022-11-02T04:24:51.608Z,100.00
2022-11-02T04:29:57.228Z,100.00
2022-11-02T04:35:07.610Z,100.00
2022-11-02T04:40:15.538Z,100.00
2022-11-02T04:45:22.087Z,100.00
2022-11-02T04:50:33.854Z,100.00
2022-11-02T04:55:40.218Z,100.00
2022-11-02T05:00:45.785Z,100.00
2022-11-02T05:05:59.567Z,100.00
2022-11-02T05:11:05.512Z,100.00
2022-11-02T05:16:22.223Z,100.00
2022-11-02T05:21:32.900Z,100.00
2022-11-02T05:26:37.926Z,100.00
2022-11-02T05:31:43.197Z,100.00
2022-11-02T05:36:51.321Z,100.00
2022-11-02T05:41:57.213Z,100.00
2022-11-02T05:47:02.236Z,100.00
2022-11-02T05:52:10.721Z,100.00
2022-11-02T05:57:17.197Z,100.00
2022-11-02T06:02:24.748Z,100.00
2022-11-02T06:07:33.105Z,100.00
2022-11-02T06:12:38.421Z,100.00
2022-11-02T06:17:45.892Z,100.00
2022-11-02T06:22:53.438Z,100.00
2022-11-02T06:28:02.726Z,100.00
2022-11-02T06:33:11.827Z,100.00
2022-11-02T06:38:27.380Z,100.00
2022-11-02T06:43:32.623Z,100.00
2022-11-02T06:48:37.521Z,100.00
2022-11-02T06:54:02.242Z,100.00
2022-11-02T06:59:13.342Z,100.00
2022-11-02T07:04:18.440Z,100.00
2022-11-02T07:09:25.906Z,100.00
2022-11-02T07:14:30.724Z,100.00
2022-11-02T07:19:35.862Z,100.00
2022-11-02T07:24:46.984Z,100.00
2022-11-02T07:29:52.308Z,100.00
2022-11-02T07:34:57.210Z,100.00
2022-11-02T07:40:04.907Z,100.00
2022-11-02T07:45:12.945Z,100.00
2022-11-02T07:50:23.862Z,100.00
2022-11-02T07:55:36.051Z,100.00
2022-11-02T08:00:46.932Z,100.00
2022-11-02T08:05:52.387Z,100.00
2022-11-02T08:11:10.120Z,100.00
2022-11-02T08:16:16.025Z,100.00
2022-11-02T08:21:20.915Z,100.00
2022-11-02T08:26:55.719Z,94.38
2022-11-02T08:32:04.415Z,97.85
2022-11-02T08:37:11.218Z,96.99
2022-11-02T08:42:22.885Z,81.51
2022-11-02T08:47:27.910Z,75.27
2022-11-02T08:52:47.812Z,72.38
2022-11-02T08:57:59.777Z,75.88
2022-11-02T09:03:08.367Z,73.34
2022-11-02T09:08:16.959Z,70.88
2022-11-02T09:13:25.722Z,73.56
2022-11-02T09:18:34.445Z,72.19
2022-11-02T09:23:39.335Z,70.62
2022-11-02T09:28:46.826Z,72.18
2022-11-02T09:33:51.967Z,71.90
2022-11-02T09:38:57.087Z,82.73
2022-11-02T09:44:14.399Z,87.61
2022-11-02T09:49:23.421Z,88.08
2022-11-02T09:54:32.454Z,88.38
2022-11-02T09:59:40.753Z,89.41
2022-11-02T10:05:03.547Z,91.01
2022-11-02T10:10:16.454Z,90.50
2022-11-02T10:15:28.881Z,92.01
2022-11-02T10:20:40.767Z,91.89
2022-11-02T10:25:45.817Z,88.21
2022-11-02T10:30:55.745Z,87.76
2022-11-02T10:36:28.573Z,84.32
2022-11-02T10:41:45.268Z,79.03
2022-11-02T10:47:06.742Z,79.31
2022-11-02T10:52:18.339Z,78.56
2022-11-02T10:57:28.386Z,80.50
2022-11-02T11:02:36.159Z,83.23
2022-11-02T11:07:42.311Z,85.00
2022-11-02T11:12:47.430Z,82.74
2022-11-02T11:23:25.403Z,83.59
2022-11-02T11:28:33.780Z,81.78
2022-11-02T11:33:51.944Z,81.55
2022-11-02T11:39:00.575Z,81.60
2022-11-02T11:44:07.748Z,82.67
2022-11-02T11:50:02.923Z,78.35
2022-11-02T11:55:00.158Z,76.09
2022-11-02T12:00:28.992Z,74.36
2022-11-02T12:05:50.497Z,74.49
2022-11-02T12:11:09.522Z,71.25
2022-11-02T12:16:21.484Z,71.82
2022-11-02T12:21:47.142Z,70.95
2022-11-02T12:27:12.552Z,73.56
2022-11-02T12:32:35.199Z,75.31
2022-11-02T12:38:02.166Z,76.65
2022-11-02T12:43:29.221Z,76.71
2022-11-02T12:48:45.219Z,76.08
2022-11-02T12:53:58.354Z,71.98
2022-11-02T12:59:03.847Z,70.35
2022-11-02T13:04:17.443Z,68.76
2022-11-02T13:09:33.746Z,71.75
2022-11-02T13:14:43.515Z,72.10
2022-11-02T13:19:53.003Z,72.72
2022-11-02T13:25:09.149Z,71.60
2022-11-02T13:30:20.375Z,71.57
2022-11-02T13:35:32.461Z,72.02
2022-11-02T13:40:46.299Z,71.60
2022-11-02T13:46:04.068Z,72.68
2022-11-02T13:51:19.449Z,71.63
2022-11-02T13:56:30.932Z,71.28
2022-11-02T14:01:39.071Z,70.00
2022-11-02T14:06:56.589Z,70.08
2022-11-02T14:12:30.339Z,70.62
2022-11-02T14:18:15.561Z,70.47
2022-11-02T14:23:41.194Z,71.27
2022-11-02T14:28:51.086Z,72.03
2022-11-02T14:34:13.181Z,71.94
2022-11-02T14:39:30.176Z,72.02
2022-11-02T14:45:20.632Z,72.92
2022-11-02T14:50:29.667Z,72.23
2022-11-02T14:55:37.763Z,73.12
2022-11-02T15:01:01.437Z,73.32
2022-11-02T15:06:19.462Z,72.65
2022-11-02T15:11:48.931Z,74.82
2022-11-02T15:17:07.151Z,75.72
2022-11-02T15:22:39.284Z,76.64
2022-11-02T15:27:47.266Z,75.96
2022-11-02T15:33:01.887Z,77.90
2022-11-02T15:38:17.586Z,79.34
2022-11-02T15:43:45.094Z,79.10
2022-11-02T15:49:00.226Z,78.49
2022-11-02T15:54:22.844Z,80.15
2022-11-02T15:59:51.038Z,79.79
2022-11-02T16:05:03.869Z,82.06
2022-11-02T16:10:30.296Z,81.17
2022-11-02T16:15:35.255Z,82.71
2022-11-02T16:20:42.992Z,83.09
2022-11-02T16:25:50.374Z,85.44
2022-11-02T16:31:08.723Z,85.63
2022-11-02T16:36:25.788Z,86.05
2022-11-02T16:41:32.999Z,85.74
2022-11-02T16:46:48.460Z,85.75
2022-11-02T16:52:03.915Z,86.92
2022-11-02T16:57:15.845Z,88.29
2022-11-02T17:02:21.585Z,87.28
2022-11-02T17:07:34.484Z,87.00
2022-11-02T17:12:47.891Z,87.67
2022-11-02T17:17:53.550Z,89.11
2022-11-02T17:23:05.391Z,89.15
2022-11-02T17:28:47.597Z,88.46
2022-11-02T17:33:53.459Z,88.99
2022-11-02T17:39:05.704Z,88.91
2022-11-02T17:44:22.014Z,90.00
2022-11-02T17:49:27.308Z,90.43
2022-11-02T17:54:34.785Z,90.58
2022-11-02T17:59:39.643Z,91.09
2022-11-02T18:04:45.957Z,91.21
2022-11-02T18:09:54.745Z,91.56
2022-11-02T18:15:07.153Z,90.43
2022-11-02T18:20:13.403Z,90.22
2022-11-02T18:25:25.135Z,90.90
2022-11-02T18:30:32.641Z,91.13
2022-11-02T18:35:39.625Z,91.74
2022-11-02T18:40:47.284Z,91.49
2022-11-02T18:45:52.138Z,94.33
2022-11-02T18:50:56.947Z,96.44
2022-11-02T18:56:09.680Z,97.70
2022-11-02T19:01:16.293Z,98.35
2022-11-02T19:06:34.264Z,96.21
2022-11-02T19:11:41.750Z,98.14
2022-11-02T19:16:48.293Z,100.00
2022-11-02T19:21:56.111Z,100.00
2022-11-02T19:27:03.977Z,100.00
2022-11-02T19:32:09.284Z,100.00
2022-11-02T19:37:14.838Z,100.00
2022-11-02T19:42:22.731Z,100.00
2022-11-02T19:47:28.264Z,100.00
2022-11-02T19:52:33.702Z,100.00
2022-11-02T19:57:41.707Z,100.00
2022-11-02T20:02:47.085Z,100.00
2022-11-02T20:07:55.282Z,100.00
2022-11-02T20:13:03.081Z,100.00
2022-11-02T20:18:19.613Z,100.00
2022-11-02T20:23:26.624Z,100.00
2022-11-02T20:28:35.085Z,100.00
2022-11-02T20:33:41.161Z,100.00
2022-11-02T20:38:46.432Z,100.00
2022-11-02T20:43:55.869Z,100.00
2022-11-02T20:49:08.660Z,100.00
2022-11-02T20:54:29.557Z,100.00
2022-11-02T20:59:39.418Z,100.00
2022-11-02T21:04:44.294Z,100.00
2022-11-02T21:09:51.584Z,100.00
2022-11-02T21:15:01.625Z,100.00
2022-11-02T21:25:34.418Z,100.00
2022-11-02T21:30:42.034Z,100.00
2022-11-02T21:35:46.848Z,100.00
2022-11-02T21:40:51.667Z,100.00
2022-11-02T21:46:00.897Z,100.00
2022-11-02T21:51:08.045Z,100.00
2022-11-02T21:56:15.529Z,100.00
2022-11-02T22:01:38.693Z,100.00
2022-11-02T22:06:44.190Z,100.00
2022-11-02T22:12:09.426Z,100.00
2022-11-02T22:17:43.236Z,100.00
2022-11-02T22:22:41.832Z,100.00
2022-11-02T22:27:46.636Z,100.00
2022-11-02T22:32:54.179Z,100.00
2022-11-02T22:38:11.414Z,100.00
2022-11-02T22:43:16.179Z,100.00
2022-11-02T22:48:23.596Z,100.00
2022-11-02T22:53:30.241Z,100.00
2022-11-02T22:58:35.901Z,100.00
2022-11-02T23:03:43.312Z,100.00
2022-11-02T23:08:48.877Z,100.00
2022-11-02T23:13:57.677Z,100.00
2022-11-02T23:19:25.289Z,100.00
2022-11-02T23:24:43.960Z,100.00
2022-11-02T23:30:01.230Z,100.00
2022-11-02T23:35:40.944Z,100.00
2022-11-02T23:40:50.968Z,100.00
2022-11-02T23:45:55.811Z,100.00
2022-11-02T23:51:20.154Z,100.00
2022-11-02T23:56:38.975Z,100.00
